createdAt,value
2018-03-06T00:00:54.865Z,8.00
2018-03-06T00:01:54.861Z,4.00
2018-03-06T00:02:54.859Z,8.00
2018-03-06T00:03:54.851Z,4.00
2018-03-06T00:04:54.848Z,8.00
2018-03-06T00:05:54.842Z,4.00
2018-03-06T00:06:54.838Z,4.00
2018-03-06T00:07:54.830Z,4.00
2018-03-06T00:08:54.827Z,8.00
2018-03-06T00:09:54.820Z,8.00
2018-03-06T00:10:54.815Z,8.00
2018-03-06T00:11:54.815Z,8.00
2018-03-06T00:12:54.811Z,8.00
2018-03-06T00:13:54.807Z,4.00
2018-03-06T00:14:54.805Z,8.00
2018-03-06T00:15:54.797Z,4.00
2018-03-06T00:16:54.789Z,4.00
2018-03-06T00:17:54.791Z,4.00
2018-03-06T00:18:54.784Z,4.00
2018-03-06T00:19:54.779Z,4.00
2018-03-06T00:20:54.776Z,4.00
2018-03-06T00:21:54.771Z,4.00
2018-03-06T00:22:54.802Z,4.00
2018-03-06T00:23:54.757Z,4.00
2018-03-06T00:24:54.756Z,4.00
2018-03-06T00:25:54.748Z,4.00
2018-03-06T00:26:54.744Z,4.00
2018-03-06T00:27:54.743Z,4.00
2018-03-06T00:28:54.738Z,4.00
2018-03-06T00:29:54.734Z,4.00
2018-03-06T00:30:54.729Z,4.00
2018-03-06T00:31:54.720Z,4.00
2018-03-06T00:32:54.720Z,4.00
2018-03-06T00:33:54.715Z,4.00
2018-03-06T00:34:54.706Z,8.00
2018-03-06T00:35:54.709Z,4.00
2018-03-06T00:36:54.702Z,4.00
2018-03-06T00:37:54.700Z,4.00
2018-03-06T00:38:54.692Z,4.00
2018-03-06T00:39:54.687Z,4.00
2018-03-06T00:40:54.684Z,4.00
2018-03-06T00:41:54.679Z,4.00
2018-03-06T00:42:54.673Z,4.00
2018-03-06T00:43:54.665Z,4.00
2018-03-06T00:44:54.665Z,4.00
2018-03-06T00:45:54.660Z,4.00
2018-03-06T00:46:54.663Z,4.00
2018-03-06T00:47:54.885Z,4.00
2018-03-06T00:48:54.646Z,4.00
2018-03-06T00:49:54.641Z,4.00
2018-03-06T00:50:54.633Z,4.00
2018-03-06T00:51:54.632Z,4.00
2018-03-06T00:52:54.623Z,4.00
2018-03-06T00:53:54.623Z,4.00
2018-03-06T00:54:54.617Z,4.00
2018-03-06T00:55:54.611Z,4.00
2018-03-06T00:56:54.609Z,4.00
2018-03-06T00:57:54.609Z,4.00
2018-03-06T00:58:54.603Z,4.00
2018-03-06T00:59:54.594Z,4.00
2018-03-06T01:00:54.590Z,4.00
2018-03-06T01:01:54.585Z,4.00
2018-03-06T01:02:54.576Z,4.00
2018-03-06T01:03:54.575Z,4.00
2018-03-06T01:04:54.572Z,4.00
2018-03-06T01:05:54.567Z,4.00
2018-03-06T01:06:54.558Z,4.00
2018-03-06T01:07:54.552Z,4.00
2018-03-06T01:08:54.553Z,4.00
2018-03-06T01:09:54.548Z,4.00
2018-03-06T01:10:54.543Z,4.00
2018-03-06T01:11:54.534Z,4.00
2018-03-06T01:12:54.568Z,4.00
2018-03-06T01:13:54.529Z,4.00
2018-03-06T01:14:54.526Z,4.00
2018-03-06T01:15:54.520Z,4.00
2018-03-06T01:16:54.510Z,4.00
2018-03-06T01:17:54.511Z,4.00
2018-03-06T01:18:54.505Z,4.00
2018-03-06T01:19:54.496Z,4.00
2018-03-06T01:20:54.496Z,4.00
2018-03-06T01:21:54.492Z,4.00
2018-03-06T01:22:54.483Z,4.00
2018-03-06T01:23:54.482Z,4.00
2018-03-06T01:24:54.477Z,4.00
2018-03-06T01:25:54.472Z,4.00
2018-03-06T01:26:54.463Z,4.00
2018-03-06T01:27:54.464Z,4.00
2018-03-06T01:28:54.454Z,4.00
2018-03-06T01:29:54.451Z,4.00
2018-03-06T01:30:54.448Z,4.00
2018-03-06T01:31:54.444Z,4.00
2018-03-06T01:32:54.435Z,4.00
2018-03-06T01:33:54.432Z,4.00
2018-03-06T01:34:54.430Z,4.00
2018-03-06T01:35:54.424Z,4.00
2018-03-06T01:36:54.421Z,4.00
2018-03-06T01:37:54.448Z,4.00
2018-03-06T01:38:54.410Z,4.00
2018-03-06T01:39:54.407Z,4.00
2018-03-06T01:40:54.402Z,4.00
2018-03-06T01:41:54.383Z,4.00
2018-03-06T01:42:54.378Z,4.00
2018-03-06T01:43:54.387Z,4.00
2018-03-06T01:44:54.363Z,4.00
2018-03-06T01:45:54.378Z,4.00
2018-03-06T01:46:54.352Z,4.00
2018-03-06T01:47:54.370Z,4.00
2018-03-06T01:48:54.345Z,4.00
2018-03-06T01:49:54.362Z,4.00
2018-03-06T01:50:54.339Z,4.00
2018-03-06T01:51:54.434Z,4.00
2018-03-06T01:52:54.342Z,4.00
2018-03-06T01:53:54.338Z,4.00
2018-03-06T01:54:54.318Z,4.00
2018-03-06T01:55:54.314Z,8.00
2018-03-06T01:56:54.311Z,4.00
2018-03-06T01:57:54.323Z,4.00
2018-03-06T01:58:54.301Z,4.00
2018-03-06T01:59:54.312Z,4.00
2018-03-06T02:00:54.310Z,4.00
2018-03-06T02:01:54.287Z,4.00
2018-03-06T02:02:54.313Z,4.00
2018-03-06T02:03:54.276Z,4.00
2018-03-06T02:04:54.285Z,4.00
2018-03-06T02:05:54.272Z,4.00
2018-03-06T02:06:54.261Z,4.00
2018-03-06T02:07:54.271Z,4.00
2018-03-06T02:08:54.267Z,4.00
2018-03-06T02:09:54.248Z,4.00
2018-03-06T02:10:54.245Z,4.00
2018-03-06T02:11:54.237Z,4.00
2018-03-06T02:12:54.234Z,4.00
2018-03-06T02:13:54.231Z,4.00
2018-03-06T02:14:54.242Z,4.00
2018-03-06T02:15:54.238Z,4.00
2018-03-06T02:16:54.229Z,4.00
2018-03-06T02:17:54.230Z,4.00
2018-03-06T02:18:54.219Z,4.00
2018-03-06T02:19:54.218Z,4.00
2018-03-06T02:20:54.214Z,4.00
2018-03-06T02:21:54.207Z,4.00
2018-03-06T02:22:54.204Z,4.00
2018-03-06T02:23:54.197Z,4.00
2018-03-06T02:24:54.196Z,4.00
2018-03-06T02:25:54.191Z,4.00
2018-03-06T02:26:54.186Z,4.00
2018-03-06T02:27:54.419Z,4.00
2018-03-06T02:28:54.176Z,4.00
2018-03-06T02:29:54.168Z,4.00
2018-03-06T02:30:54.167Z,4.00
2018-03-06T02:31:54.163Z,4.00
2018-03-06T02:32:54.158Z,4.00
2018-03-06T02:33:54.153Z,4.00
2018-03-06T02:34:54.144Z,4.00
2018-03-06T02:35:54.143Z,4.00
2018-03-06T02:36:54.142Z,4.00
2018-03-06T02:37:54.136Z,4.00
2018-03-06T02:38:54.125Z,4.00
2018-03-06T02:39:54.121Z,4.00
2018-03-06T02:40:54.120Z,4.00
2018-03-06T02:41:54.112Z,4.00
2018-03-06T02:42:54.111Z,4.00
2018-03-06T02:43:54.107Z,4.00
2018-03-06T02:44:54.101Z,4.00
2018-03-06T02:45:54.092Z,4.00
2018-03-06T02:46:54.092Z,4.00
2018-03-06T02:47:54.090Z,4.00
2018-03-06T02:48:54.079Z,4.00
2018-03-06T02:49:54.077Z,4.00
2018-03-06T02:50:54.069Z,4.00
2018-03-06T02:51:54.069Z,4.00
2018-03-06T02:52:54.098Z,4.00
2018-03-06T02:53:54.054Z,4.00
2018-03-06T02:54:54.051Z,4.00
2018-03-06T02:55:54.049Z,4.00
2018-03-06T02:56:54.044Z,4.00
2018-03-06T02:57:54.039Z,4.00
2018-03-06T02:58:54.030Z,4.00
2018-03-06T02:59:54.030Z,4.00
2018-03-06T03:00:54.025Z,4.00
2018-03-06T03:01:54.022Z,4.00
2018-03-06T03:02:54.015Z,4.00
2018-03-06T03:03:54.010Z,4.00
2018-03-06T03:04:54.006Z,4.00
2018-03-06T03:05:54.005Z,4.00
2018-03-06T03:06:53.991Z,4.00
2018-03-06T03:07:53.990Z,4.00
2018-03-06T03:08:53.985Z,4.00
2018-03-06T03:09:53.976Z,4.00
2018-03-06T03:10:53.975Z,4.00
2018-03-06T03:11:53.966Z,4.00
2018-03-06T03:12:53.965Z,4.00
2018-03-06T03:13:53.961Z,4.00
2018-03-06T03:14:53.958Z,4.00
2018-03-06T03:15:53.947Z,4.00
2018-03-06T03:16:53.942Z,4.00
2018-03-06T03:17:53.976Z,4.00
2018-03-06T03:18:53.936Z,4.00
2018-03-06T03:19:53.932Z,4.00
2018-03-06T03:20:53.927Z,4.00
2018-03-06T03:21:53.922Z,4.00
2018-03-06T03:22:53.897Z,4.00
2018-03-06T03:23:53.912Z,4.00
2018-03-06T03:24:53.903Z,4.00
2018-03-06T03:25:53.885Z,4.00
2018-03-06T03:26:53.882Z,4.00
2018-03-06T03:27:53.892Z,4.00
2018-03-06T03:28:53.881Z,4.00
2018-03-06T03:29:53.881Z,4.00
2018-03-06T03:30:53.873Z,4.00
2018-03-06T03:31:53.866Z,4.00
2018-03-06T03:32:53.865Z,4.00
2018-03-06T03:33:53.841Z,4.00
2018-03-06T03:34:53.855Z,4.00
2018-03-06T03:35:53.834Z,4.00
2018-03-06T03:36:53.829Z,4.00
2018-03-06T03:37:53.824Z,4.00
2018-03-06T03:38:53.832Z,4.00
2018-03-06T03:39:53.816Z,4.00
2018-03-06T03:40:53.826Z,4.00
2018-03-06T03:41:53.806Z,4.00
2018-03-06T03:42:53.835Z,4.00
2018-03-06T03:43:53.795Z,4.00
2018-03-06T03:44:53.808Z,4.00
2018-03-06T03:45:53.786Z,4.00
2018-03-06T03:46:53.787Z,4.00
2018-03-06T03:47:53.775Z,4.00
2018-03-06T03:48:53.790Z,4.00
2018-03-06T03:49:53.770Z,4.00
2018-03-06T03:50:53.757Z,4.00
2018-03-06T03:51:53.772Z,4.00
2018-03-06T03:52:53.769Z,4.00
2018-03-06T03:53:53.762Z,4.00
2018-03-06T03:54:53.752Z,4.00
2018-03-06T03:55:53.751Z,4.00
2018-03-06T03:56:53.747Z,4.00
2018-03-06T03:57:53.726Z,4.00
2018-03-06T03:58:53.732Z,4.00
2018-03-06T03:59:53.717Z,4.00
2018-03-06T04:00:53.735Z,4.00
2018-03-06T04:01:53.703Z,4.00
2018-03-06T04:02:53.715Z,4.00
2018-03-06T04:03:53.693Z,4.00
2018-03-06T04:04:53.687Z,4.00
2018-03-06T04:05:53.687Z,4.00
2018-03-06T04:06:53.681Z,4.00
2018-03-06T04:07:53.711Z,4.00
2018-03-06T04:08:53.670Z,4.00
2018-03-06T04:09:53.687Z,4.00
2018-03-06T04:10:53.678Z,4.00
2018-03-06T04:11:53.659Z,4.00
2018-03-06T04:12:53.647Z,4.00
2018-03-06T04:13:53.646Z,4.00
2018-03-06T04:14:53.661Z,4.00
2018-03-06T04:15:53.675Z,4.00
2018-03-06T04:16:53.626Z,4.00
2018-03-06T04:17:53.643Z,4.00
2018-03-06T04:18:53.639Z,4.00
2018-03-06T04:19:53.632Z,4.00
2018-03-06T04:20:53.628Z,4.00
2018-03-06T04:21:53.705Z,4.00
2018-03-06T04:22:53.619Z,4.00
2018-03-06T04:23:53.592Z,4.00
2018-03-06T04:24:53.607Z,4.00
2018-03-06T04:25:53.584Z,4.00
2018-03-06T04:26:53.578Z,4.00
2018-03-06T04:27:53.592Z,4.00
2018-03-06T04:28:53.587Z,4.00
2018-03-06T04:29:53.578Z,4.00
2018-03-06T04:30:53.577Z,4.00
2018-03-06T04:31:53.572Z,4.00
2018-03-06T04:32:53.602Z,4.00
2018-03-06T04:33:53.557Z,4.00
2018-03-06T04:34:53.556Z,4.00
2018-03-06T04:35:53.551Z,4.00
2018-03-06T04:36:53.542Z,4.00
2018-03-06T04:37:53.537Z,4.00
2018-03-06T04:38:53.535Z,4.00
2018-03-06T04:39:53.531Z,4.00
2018-03-06T04:40:53.521Z,4.00
2018-03-06T04:41:53.517Z,4.00
2018-03-06T04:42:53.514Z,4.00
2018-03-06T04:43:53.510Z,4.00
2018-03-06T04:44:53.507Z,4.00
2018-03-06T04:45:53.500Z,4.00
2018-03-06T04:46:53.494Z,4.00
2018-03-06T04:47:53.485Z,4.00
2018-03-06T04:48:53.484Z,4.00
2018-03-06T04:49:53.479Z,4.00
2018-03-06T04:50:53.473Z,4.00
2018-03-06T04:51:53.569Z,4.00
2018-03-06T04:52:53.464Z,4.00
2018-03-06T04:53:53.459Z,4.00
2018-03-06T04:54:53.453Z,4.00
2018-03-06T04:55:53.449Z,4.00
2018-03-06T04:56:53.443Z,4.00
2018-03-06T04:57:53.469Z,4.00
2018-03-06T04:58:53.432Z,4.00
2018-03-06T04:59:53.429Z,4.00
2018-03-06T05:00:53.423Z,4.00
2018-03-06T05:01:53.418Z,4.00
2018-03-06T05:02:53.412Z,4.00
2018-03-06T05:03:53.407Z,4.00
2018-03-06T05:04:53.402Z,4.00
2018-03-06T05:05:53.399Z,4.00
2018-03-06T05:06:53.391Z,4.00
2018-03-06T05:07:53.386Z,4.00
2018-03-06T05:08:53.384Z,4.00
2018-03-06T05:09:53.385Z,4.00
2018-03-06T05:10:53.373Z,4.00
2018-03-06T05:11:53.366Z,4.00
2018-03-06T05:12:53.360Z,4.00
2018-03-06T05:13:53.352Z,4.00
2018-03-06T05:14:53.347Z,4.00
2018-03-06T05:15:53.345Z,4.00
2018-03-06T05:16:53.336Z,4.00
2018-03-06T05:17:53.331Z,4.00
2018-03-06T05:18:53.374Z,4.00
2018-03-06T05:19:53.331Z,4.00
2018-03-06T05:20:53.315Z,4.00
2018-03-06T05:21:53.312Z,4.00
2018-03-06T05:22:53.340Z,4.00
2018-03-06T05:23:53.300Z,4.00
2018-03-06T05:24:53.299Z,4.00
2018-03-06T05:25:53.294Z,4.00
2018-03-06T05:26:53.334Z,4.00
2018-03-06T05:27:53.283Z,4.00
2018-03-06T05:28:53.279Z,4.00
2018-03-06T05:29:53.270Z,4.00
2018-03-06T05:30:53.264Z,4.00
2018-03-06T05:31:53.258Z,4.00
2018-03-06T05:32:53.254Z,4.00
2018-03-06T05:33:53.253Z,4.00
2018-03-06T05:34:53.243Z,4.00
2018-03-06T05:35:53.238Z,4.00
2018-03-06T05:36:53.237Z,4.00
2018-03-06T05:37:53.228Z,4.00
2018-03-06T05:38:53.224Z,4.00
2018-03-06T05:39:53.217Z,4.00
2018-03-06T05:40:53.217Z,4.00
2018-03-06T05:41:53.211Z,4.00
2018-03-06T05:42:53.205Z,4.00
2018-03-06T05:43:53.179Z,4.00
2018-03-06T05:44:53.178Z,4.00
2018-03-06T05:45:53.176Z,4.00
2018-03-06T05:46:53.184Z,4.00
2018-03-06T05:47:53.199Z,4.00
2018-03-06T05:48:53.170Z,4.00
2018-03-06T05:49:53.169Z,4.00
2018-03-06T05:50:53.159Z,4.00
2018-03-06T05:51:53.240Z,4.00
2018-03-06T05:52:53.150Z,4.00
2018-03-06T05:53:53.148Z,4.00
2018-03-06T05:54:53.121Z,4.00
2018-03-06T05:55:53.115Z,4.00
2018-03-06T05:56:53.128Z,4.00
2018-03-06T05:57:53.110Z,4.00
2018-03-06T05:58:53.103Z,4.00
2018-03-06T05:59:53.095Z,4.00
2018-03-06T06:00:53.109Z,4.00
2018-03-06T06:01:53.108Z,4.00
2018-03-06T06:02:53.100Z,4.00
2018-03-06T06:03:53.088Z,4.00
2018-03-06T06:04:53.073Z,4.00
2018-03-06T06:05:53.059Z,4.00
2018-03-06T06:06:53.071Z,4.00
2018-03-06T06:07:53.054Z,4.00
2018-03-06T06:08:53.066Z,4.00
2018-03-06T06:09:53.046Z,4.00
2018-03-06T06:10:53.050Z,4.00
2018-03-06T06:11:53.032Z,4.00
2018-03-06T06:12:53.081Z,4.00
2018-03-06T06:13:53.040Z,4.00
2018-03-06T06:14:53.028Z,4.00
2018-03-06T06:15:53.029Z,4.00
2018-03-06T06:16:53.022Z,4.00
2018-03-06T06:17:53.013Z,4.00
2018-03-06T06:18:53.005Z,4.00
2018-03-06T06:19:53.001Z,4.00
2018-03-06T06:20:53.007Z,4.00
2018-03-06T06:21:52.996Z,4.00
2018-03-06T06:22:52.994Z,4.00
2018-03-06T06:23:52.987Z,4.00
2018-03-06T06:24:52.974Z,4.00
2018-03-06T06:25:52.975Z,4.00
2018-03-06T06:26:52.975Z,4.00
2018-03-06T06:27:52.964Z,4.00
2018-03-06T06:28:52.954Z,4.00
2018-03-06T06:29:52.951Z,4.00
2018-03-06T06:30:52.950Z,4.00
2018-03-06T06:31:52.943Z,4.00
2018-03-06T06:32:52.938Z,4.00
2018-03-06T06:33:52.937Z,4.00
2018-03-06T06:34:52.932Z,4.00
2018-03-06T06:35:52.927Z,4.00
2018-03-06T06:36:52.922Z,4.00
2018-03-06T06:37:52.945Z,4.00
2018-03-06T06:38:52.901Z,4.00
2018-03-06T06:39:53.009Z,4.00
2018-03-06T06:40:52.899Z,4.00
2018-03-06T06:41:52.876Z,4.00
2018-03-06T06:42:52.881Z,4.00
2018-03-06T06:43:52.880Z,4.00
2018-03-06T06:44:52.865Z,4.00
2018-03-06T06:45:52.850Z,4.00
2018-03-06T06:46:52.870Z,4.00
2018-03-06T06:47:52.838Z,4.00
2018-03-06T06:48:52.839Z,4.00
2018-03-06T06:49:52.845Z,4.00
2018-03-06T06:50:52.829Z,4.00
2018-03-06T06:51:52.917Z,4.00
2018-03-06T06:52:52.817Z,4.00
2018-03-06T06:53:52.807Z,4.00
2018-03-06T06:54:52.807Z,4.00
2018-03-06T06:55:52.797Z,4.00
2018-03-06T06:56:52.793Z,4.00
2018-03-06T06:57:52.786Z,4.00
2018-03-06T06:58:52.780Z,4.00
2018-03-06T06:59:52.776Z,4.00
2018-03-06T07:00:52.776Z,4.00
2018-03-06T07:01:52.766Z,4.00
2018-03-06T07:02:52.769Z,4.00
2018-03-06T07:03:52.860Z,4.00
2018-03-06T07:04:52.748Z,4.00
2018-03-06T07:05:52.750Z,4.00
2018-03-06T07:06:52.739Z,4.00
2018-03-06T07:07:52.743Z,4.00
2018-03-06T07:08:52.733Z,4.00
2018-03-06T07:09:52.733Z,4.00
2018-03-06T07:10:52.723Z,4.00
2018-03-06T07:11:52.718Z,4.00
2018-03-06T07:12:52.713Z,4.00
2018-03-06T07:13:52.712Z,4.00
2018-03-06T07:14:52.697Z,4.00
2018-03-06T07:15:52.690Z,4.00
2018-03-06T07:16:52.691Z,4.00
2018-03-06T07:17:52.689Z,4.00
2018-03-06T07:18:52.676Z,4.00
2018-03-06T07:19:52.676Z,4.00
2018-03-06T07:20:52.663Z,4.00
2018-03-06T07:21:52.659Z,4.00
2018-03-06T07:22:52.659Z,4.00
2018-03-06T07:23:52.659Z,4.00
2018-03-06T07:24:52.648Z,4.00
2018-03-06T07:25:52.648Z,4.00
2018-03-06T07:26:52.642Z,4.00
2018-03-06T07:27:52.727Z,4.00
2018-03-06T07:28:52.628Z,4.00
2018-03-06T07:29:52.623Z,4.00
2018-03-06T07:30:52.617Z,4.00
2018-03-06T07:31:52.623Z,4.00
2018-03-06T07:32:52.609Z,4.00
2018-03-06T07:33:52.601Z,4.00
2018-03-06T07:34:52.595Z,4.00
2018-03-06T07:35:52.585Z,4.00
2018-03-06T07:36:52.585Z,4.00
2018-03-06T07:37:52.579Z,4.00
2018-03-06T07:38:52.567Z,4.00
2018-03-06T07:39:52.568Z,4.00
2018-03-06T07:40:52.563Z,4.00
2018-03-06T07:41:52.558Z,4.00
2018-03-06T07:42:52.552Z,4.00
2018-03-06T07:43:52.546Z,4.00
2018-03-06T07:44:52.544Z,4.00
2018-03-06T07:45:52.537Z,4.00
2018-03-06T07:46:52.547Z,4.00
2018-03-06T07:47:52.529Z,4.00
2018-03-06T07:48:52.547Z,4.00
2018-03-06T07:49:52.535Z,4.00
2018-03-06T07:50:52.508Z,4.00
2018-03-06T07:51:52.502Z,4.00
2018-03-06T07:52:52.498Z,4.00
2018-03-06T07:53:52.499Z,4.00
2018-03-06T07:54:52.504Z,4.00
2018-03-06T07:55:52.503Z,4.00
2018-03-06T07:56:52.488Z,4.00
2018-03-06T07:57:52.474Z,4.00
2018-03-06T07:58:52.458Z,4.00
2018-03-06T07:59:52.477Z,4.00
2018-03-06T08:00:52.467Z,4.00
2018-03-06T08:01:52.454Z,4.00
2018-03-06T08:02:52.461Z,4.00
2018-03-06T08:03:52.432Z,4.00
2018-03-06T08:04:52.450Z,4.00
2018-03-06T08:05:52.431Z,4.00
2018-03-06T08:06:52.423Z,4.00
2018-03-06T08:07:52.438Z,4.00
2018-03-06T08:08:52.414Z,4.00
2018-03-06T08:09:52.400Z,4.00
2018-03-06T08:10:52.412Z,4.00
2018-03-06T08:11:52.390Z,4.00
2018-03-06T08:12:52.407Z,4.00
2018-03-06T08:13:52.385Z,4.00
2018-03-06T08:14:52.373Z,4.00
2018-03-06T08:15:52.385Z,4.00
2018-03-06T08:16:52.363Z,4.00
2018-03-06T08:17:52.393Z,4.00
2018-03-06T08:18:52.361Z,4.00
2018-03-06T08:19:52.373Z,4.00
2018-03-06T08:20:52.350Z,4.00
2018-03-06T08:21:52.346Z,4.00
2018-03-06T08:22:52.352Z,4.00
2018-03-06T08:23:52.332Z,4.00
2018-03-06T08:24:52.346Z,4.00
2018-03-06T08:25:52.337Z,4.00
2018-03-06T08:26:52.316Z,4.00
2018-03-06T08:27:52.311Z,4.00
2018-03-06T08:28:52.305Z,4.00
2018-03-06T08:29:52.302Z,4.00
2018-03-06T08:30:52.295Z,4.00
2018-03-06T08:31:52.303Z,4.00
2018-03-06T08:32:52.298Z,4.00
2018-03-06T08:33:52.399Z,4.00
2018-03-06T08:34:52.286Z,4.00
2018-03-06T08:35:52.286Z,4.00
2018-03-06T08:36:52.284Z,4.00
2018-03-06T08:37:52.271Z,4.00
2018-03-06T08:38:52.268Z,4.00
2018-03-06T08:39:52.259Z,4.00
2018-03-06T08:40:52.257Z,4.00
2018-03-06T08:41:52.248Z,4.00
2018-03-06T08:42:52.247Z,4.00
2018-03-06T08:43:52.241Z,4.00
2018-03-06T08:44:52.241Z,4.00
2018-03-06T08:45:52.233Z,4.00
2018-03-06T08:46:52.221Z,8.00
2018-03-06T08:47:52.215Z,8.00
2018-03-06T08:48:52.215Z,8.00
2018-03-06T08:49:52.209Z,8.00
2018-03-06T08:50:52.199Z,8.00
2018-03-06T08:51:52.197Z,4.00
2018-03-06T08:52:52.189Z,8.00
2018-03-06T08:53:52.183Z,8.00
2018-03-06T08:54:52.183Z,8.00
2018-03-06T08:55:52.176Z,8.00
2018-03-06T08:56:52.171Z,8.00
2018-03-06T08:57:52.162Z,8.00
2018-03-06T08:58:52.166Z,12.00
2018-03-06T08:59:52.154Z,8.00
2018-03-06T09:00:52.149Z,12.00
2018-03-06T09:01:52.144Z,12.00
2018-03-06T09:02:52.138Z,16.00
2018-03-06T09:03:52.132Z,16.00
2018-03-06T09:04:52.127Z,16.00
2018-03-06T09:05:52.123Z,12.00
2018-03-06T09:06:52.115Z,12.00
2018-03-06T09:07:52.105Z,12.00
2018-03-06T09:08:52.105Z,16.00
2018-03-06T09:09:52.093Z,16.00
2018-03-06T09:10:52.091Z,20.00
2018-03-06T09:11:52.084Z,20.00
2018-03-06T09:12:52.081Z,20.00
2018-03-06T09:13:52.077Z,28.00
2018-03-06T09:14:52.070Z,28.00
2018-03-06T09:15:52.062Z,28.00
2018-03-06T09:16:52.054Z,32.00
2018-03-06T09:17:52.054Z,32.00
2018-03-06T09:18:52.048Z,36.00
2018-03-06T09:19:52.041Z,36.00
2018-03-06T09:20:52.036Z,40.00
2018-03-06T09:21:52.032Z,44.00
2018-03-06T09:22:52.026Z,44.00
2018-03-06T09:23:52.019Z,48.00
2018-03-06T09:24:52.009Z,48.00
2018-03-06T09:25:52.004Z,52.00
2018-03-06T09:26:52.004Z,52.00
2018-03-06T09:27:51.997Z,56.00
2018-03-06T09:28:51.992Z,52.00
2018-03-06T09:29:51.986Z,56.00
2018-03-06T09:30:51.991Z,64.00
2018-03-06T09:31:51.971Z,76.00
2018-03-06T09:32:51.965Z,80.00
2018-03-06T09:33:51.964Z,80.00
2018-03-06T09:34:51.958Z,92.00
2018-03-06T09:35:51.948Z,96.00
2018-03-06T09:36:51.978Z,104.00
2018-03-06T09:37:51.939Z,104.00
2018-03-06T09:38:51.935Z,104.00
2018-03-06T09:39:51.932Z,100.00
2018-03-06T09:40:51.928Z,92.00
2018-03-06T09:41:51.926Z,88.00
2018-03-06T09:42:51.918Z,92.00
2018-03-06T09:43:51.911Z,96.00
2018-03-06T09:44:51.909Z,108.00
2018-03-06T09:45:51.900Z,112.00
2018-03-06T09:46:51.894Z,124.00
2018-03-06T09:47:51.889Z,124.00
2018-03-06T09:48:51.883Z,140.00
2018-03-06T09:49:51.875Z,156.00
2018-03-06T09:50:51.873Z,156.00
2018-03-06T09:51:51.968Z,168.00
2018-03-06T09:52:51.868Z,192.00
2018-03-06T09:53:51.853Z,208.00
2018-03-06T09:54:51.851Z,224.00
2018-03-06T09:55:51.846Z,232.00
2018-03-06T09:56:51.842Z,232.00
2018-03-06T09:57:51.837Z,228.00
2018-03-06T09:58:51.831Z,212.00
2018-03-06T09:59:51.826Z,216.00
2018-03-06T10:00:51.822Z,240.00
2018-03-06T10:01:51.815Z,240.00
2018-03-06T10:02:51.809Z,256.00
2018-03-06T10:03:51.808Z,248.00
2018-03-06T10:04:51.800Z,220.00
2018-03-06T10:05:51.795Z,220.00
2018-03-06T10:06:51.789Z,236.00
2018-03-06T10:07:51.784Z,224.00
2018-03-06T10:08:51.780Z,208.00
2018-03-06T10:09:51.774Z,212.00
2018-03-06T10:10:51.768Z,224.00
2018-03-06T10:11:51.763Z,248.00
2018-03-06T10:12:51.758Z,256.00
2018-03-06T10:13:51.754Z,308.00
2018-03-06T10:14:51.748Z,300.00
2018-03-06T10:15:51.743Z,288.00
2018-03-06T10:16:51.759Z,288.00
2018-03-06T10:17:51.735Z,300.00
2018-03-06T10:18:51.727Z,316.00
2018-03-06T10:19:51.723Z,328.00
2018-03-06T10:20:51.722Z,340.00
2018-03-06T10:21:51.714Z,304.00
2018-03-06T10:22:51.708Z,300.00
2018-03-06T10:23:51.750Z,320.00
2018-03-06T10:24:51.698Z,340.00
2018-03-06T10:25:51.694Z,324.00
2018-03-06T10:26:51.687Z,312.00
2018-03-06T10:27:51.682Z,308.00
2018-03-06T10:28:51.678Z,316.00
2018-03-06T10:29:51.673Z,324.00
2018-03-06T10:30:51.668Z,316.00
2018-03-06T10:31:51.664Z,312.00
2018-03-06T10:32:51.658Z,296.00
2018-03-06T10:33:51.650Z,260.00
2018-03-06T10:34:51.648Z,260.00
2018-03-06T10:35:51.647Z,224.00
2018-03-06T10:36:51.639Z,200.00
2018-03-06T10:37:51.634Z,200.00
2018-03-06T10:38:51.629Z,212.00
2018-03-06T10:39:51.620Z,236.00
2018-03-06T10:40:51.620Z,248.00
2018-03-06T10:41:51.615Z,256.00
2018-03-06T10:42:51.612Z,232.00
2018-03-06T10:43:51.628Z,228.00
2018-03-06T10:44:51.601Z,280.00
2018-03-06T10:45:51.591Z,292.00
2018-03-06T10:46:51.590Z,312.00
2018-03-06T10:47:51.585Z,336.00
2018-03-06T10:48:51.567Z,368.00
2018-03-06T10:49:51.559Z,400.00
2018-03-06T10:50:51.553Z,424.00
2018-03-06T10:51:51.566Z,448.00
2018-03-06T10:52:51.542Z,476.00
2018-03-06T10:53:51.538Z,508.00
2018-03-06T10:54:51.554Z,548.00
2018-03-06T10:55:51.546Z,580.00
2018-03-06T10:56:51.538Z,600.00
2018-03-06T10:57:51.521Z,580.00
2018-03-06T10:58:51.532Z,552.00
2018-03-06T10:59:51.527Z,540.00
2018-03-06T11:00:51.519Z,476.00
2018-03-06T11:01:51.502Z,452.00
2018-03-06T11:02:51.494Z,452.00
2018-03-06T11:03:51.489Z,436.00
2018-03-06T11:04:51.490Z,432.00
2018-03-06T11:05:51.496Z,464.00
2018-03-06T11:06:51.480Z,480.00
2018-03-06T11:07:51.490Z,456.00
2018-03-06T11:08:51.485Z,484.00
2018-03-06T11:09:51.463Z,392.00
2018-03-06T11:10:51.466Z,360.00
2018-03-06T11:11:51.455Z,392.00
2018-03-06T11:12:51.453Z,364.00
2018-03-06T11:13:51.446Z,336.00
2018-03-06T11:14:51.446Z,304.00
2018-03-06T11:15:51.437Z,324.00
2018-03-06T11:16:51.436Z,292.00
2018-03-06T11:17:51.432Z,324.00
2018-03-06T11:18:51.428Z,272.00
2018-03-06T11:19:51.438Z,264.00
2018-03-06T11:20:51.438Z,288.00
2018-03-06T11:21:51.530Z,288.00
2018-03-06T11:22:51.425Z,340.00
2018-03-06T11:23:51.425Z,356.00
2018-03-06T11:24:51.425Z,372.00
2018-03-06T11:25:51.417Z,372.00
2018-03-06T11:26:51.412Z,316.00
2018-03-06T11:27:51.408Z,392.00
2018-03-06T11:28:51.404Z,400.00
2018-03-06T11:29:51.406Z,388.00
2018-03-06T11:30:51.395Z,380.00
2018-03-06T11:31:51.404Z,372.00
2018-03-06T11:32:51.387Z,368.00
2018-03-06T11:33:51.383Z,380.00
2018-03-06T11:34:51.378Z,384.00
2018-03-06T11:35:51.377Z,388.00
2018-03-06T11:36:51.370Z,384.00
2018-03-06T11:37:51.365Z,348.00
2018-03-06T11:38:51.355Z,376.00
2018-03-06T11:39:51.353Z,376.00
2018-03-06T11:40:51.347Z,376.00
2018-03-06T11:41:51.347Z,376.00
2018-03-06T11:42:51.342Z,372.00
2018-03-06T11:43:51.334Z,376.00
2018-03-06T11:44:51.332Z,372.00
2018-03-06T11:45:51.329Z,372.00
2018-03-06T11:46:51.322Z,364.00
2018-03-06T11:47:51.314Z,368.00
2018-03-06T11:48:51.316Z,372.00
2018-03-06T11:49:51.353Z,380.00
2018-03-06T11:50:51.300Z,384.00
2018-03-06T11:51:51.301Z,388.00
2018-03-06T11:52:51.302Z,392.00
2018-03-06T11:53:51.289Z,408.00
2018-03-06T11:54:51.282Z,408.00
2018-03-06T11:55:51.278Z,388.00
2018-03-06T11:56:51.278Z,380.00
2018-03-06T11:57:51.275Z,380.00
2018-03-06T11:58:51.269Z,388.00
2018-03-06T11:59:51.266Z,392.00
2018-03-06T12:00:51.419Z,404.00
2018-03-06T12:01:51.258Z,412.00
2018-03-06T12:02:51.254Z,412.00
2018-03-06T12:03:51.250Z,408.00
2018-03-06T12:04:51.246Z,404.00
2018-03-06T12:05:51.239Z,408.00
2018-03-06T12:06:51.239Z,416.00
2018-03-06T12:07:51.234Z,432.00
2018-03-06T12:08:51.231Z,456.00
2018-03-06T12:09:51.227Z,468.00
2018-03-06T12:10:51.222Z,468.00
2018-03-06T12:11:51.219Z,460.00
2018-03-06T12:12:51.211Z,444.00
2018-03-06T12:13:51.211Z,436.00
2018-03-06T12:14:51.208Z,432.00
2018-03-06T12:15:51.203Z,428.00
2018-03-06T12:16:51.198Z,428.00
2018-03-06T12:17:51.197Z,436.00
2018-03-06T12:18:51.195Z,436.00
2018-03-06T12:19:51.188Z,440.00
2018-03-06T12:20:51.187Z,452.00
2018-03-06T12:21:51.182Z,480.00
2018-03-06T12:22:51.180Z,492.00
2018-03-06T12:23:51.171Z,524.00
2018-03-06T12:24:51.171Z,572.00
2018-03-06T12:25:51.167Z,628.00
2018-03-06T12:26:51.163Z,692.00
2018-03-06T12:27:51.156Z,768.00
2018-03-06T12:28:51.153Z,840.00
2018-03-06T12:29:51.155Z,956.00
2018-03-06T12:30:51.152Z,892.00
2018-03-06T12:31:51.150Z,960.00
2018-03-06T12:32:51.142Z,1064.00
2018-03-06T12:33:51.184Z,1352.00
2018-03-06T12:34:51.136Z,1228.00
2018-03-06T12:35:51.140Z,1232.00
2018-03-06T12:36:51.134Z,1300.00
2018-03-06T12:37:51.130Z,1328.00
2018-03-06T12:38:51.129Z,1296.00
2018-03-06T12:39:51.126Z,1324.00
2018-03-06T12:40:51.120Z,1272.00
2018-03-06T12:41:51.117Z,1468.00
2018-03-06T12:42:51.128Z,1412.00
2018-03-06T12:43:51.117Z,1392.00
2018-03-06T12:44:51.112Z,1320.00
2018-03-06T12:45:51.114Z,1416.00
2018-03-06T12:46:51.110Z,2076.00
2018-03-06T12:47:51.111Z,1240.00
2018-03-06T12:48:51.108Z,1804.00
2018-03-06T12:49:51.106Z,2012.00
2018-03-06T12:50:51.106Z,1740.00
2018-03-06T12:51:51.104Z,1932.00
2018-03-06T12:52:51.100Z,1244.00
2018-03-06T12:53:51.097Z,1156.00
2018-03-06T12:54:51.145Z,1264.00
2018-03-06T12:55:51.095Z,1584.00
2018-03-06T12:56:51.092Z,1732.00
2018-03-06T12:57:51.092Z,1648.00
2018-03-06T12:58:51.089Z,1152.00
2018-03-06T12:59:51.088Z,1300.00
2018-03-06T13:00:51.089Z,1408.00
2018-03-06T13:01:51.089Z,1204.00
2018-03-06T13:02:51.082Z,1300.00